Time;durP1;ratioP1;P1;durP2;ratioP2;P2;SDS_P1;SDS_P2;PMS_P1;PMS_P2;Temp;Humidity;BMP_temperature;BMP_pressure;BME280_temperature;BME280_humidity;BME280_pressure;Samples;Min_cycle;Max_cycle;Signal;HPM_P1;HPM_P2
2023/12/20 00:01:53;;;;;;;8.70;4.87;;;;;;;6.33;100.00;100558.06;6005295;28;20390;-72
2023/12/20 00:04:48;;;;;;;8.43;3.87;;;;;;;6.34;100.00;100551.00;6012153;28;20039;-71
2023/12/20 00:07:44;;;;;;;10.37;4.83;;;;;;;6.33;100.00;100544.91;6015817;28;20117;-72
2023/12/20 00:10:39;;;;;;;12.00;5.13;;;;;;;6.28;100.00;100541.81;6013654;28;20061;-72
2023/12/20 00:13:34;;;;;;;11.53;5.10;;;;;;;6.32;100.00;100547.69;6004485;28;20106;-72
2023/12/20 00:16:31;;;;;;;11.77;4.67;;;;;;;6.27;100.00;100542.78;6009715;28;20026;-72
2023/12/20 00:19:27;;;;;;;12.77;5.32;;;;;;;6.28;100.00;100546.22;6008254;28;20026;-72
2023/12/20 00:22:22;;;;;;;13.10;5.57;;;;;;;6.29;100.00;100547.91;6014017;28;20030;-72
2023/12/20 00:25:17;;;;;;;15.47;6.47;;;;;;;6.24;100.00;100547.44;6012407;28;20278;-72
2023/12/20 00:28:13;;;;;;;15.38;5.38;;;;;;;6.12;100.00;100541.34;6019099;28;20042;-72
2023/12/20 00:31:08;;;;;;;15.50;5.70;;;;;;;6.07;100.00;100555.84;6014360;28;20367;-72
2023/12/20 00:34:03;;;;;;;13.10;6.20;;;;;;;6.06;100.00;100565.53;6013317;28;20035;-73
2023/12/20 00:36:58;;;;;;;15.73;6.30;;;;;;;6.00;100.00;100563.41;6005097;28;20031;-73
2023/12/20 00:39:54;;;;;;;14.30;5.80;;;;;;;5.93;100.00;100560.41;6009846;28;20093;-73
2023/12/20 00:42:49;;;;;;;16.37;6.57;;;;;;;5.96;100.00;100568.06;6017839;28;20058;-73
2023/12/20 00:45:44;;;;;;;14.40;6.10;;;;;;;5.94;100.00;100567.34;6013739;28;20300;-73
2023/12/20 00:48:41;;;;;;;16.60;6.30;;;;;;;5.95;100.00;100574.28;6014580;28;20257;-73
2023/12/20 00:51:37;;;;;;;13.13;6.78;;;;;;;5.89;100.00;100566.88;6019821;28;20022;-73
2023/12/20 00:54:32;;;;;;;14.47;5.93;;;;;;;5.86;100.00;100569.75;6019488;28;20038;-73
2023/12/20 00:57:27;;;;;;;15.73;6.50;;;;;;;5.88;100.00;100585.41;6008214;28;20109;-73
2023/12/20 01:00:23;;;;;;;16.30;6.10;;;;;;;5.76;100.00;100586.34;6014828;28;20331;-72
2023/12/20 01:03:18;;;;;;;14.83;5.57;;;;;;;5.66;100.00;100586.19;6016362;28;20117;-73
2023/12/20 01:06:14;;;;;;;10.10;4.93;;;;;;;5.62;100.00;100584.78;6010726;28;20315;-73
2023/12/20 01:09:10;;;;;;;16.13;5.00;;;;;;;5.61;100.00;100588.34;6008670;28;20030;-73
2023/12/20 01:12:06;;;;;;;17.58;4.55;;;;;;;5.49;100.00;100575.31;6023786;28;20030;-73
2023/12/20 01:15:01;;;;;;;14.82;4.78;;;;;;;5.42;100.00;100561.78;6011138;28;20386;-73
2023/12/20 01:17:58;;;;;;;9.37;3.53;;;;;;;5.47;100.00;100574.56;6003812;28;20035;-72
2023/12/20 01:20:53;;;;;;;15.48;5.07;;;;;;;5.39;100.00;100573.38;6009277;28;20026;-72
2023/12/20 01:23:49;;;;;;;11.80;2.70;;;;;;;5.42;100.00;100574.91;6021254;28;20045;-72
2023/12/20 01:26:44;;;;;;;7.43;3.10;;;;;;;5.43;100.00;100571.34;6012140;28;20288;-72
2023/12/20 01:29:39;;;;;;;7.43;2.60;;;;;;;5.42;100.00;100585.44;6016078;28;20274;-73
2023/12/20 01:32:35;;;;;;;8.47;2.80;;;;;;;5.35;100.00;100574.53;6021276;28;20023;-73
2023/12/20 01:35:30;;;;;;;18.60;3.63;;;;;;;5.35;100.00;100571.09;6012206;28;20648;-73
2023/12/20 01:38:25;;;;;;;11.23;3.03;;;;;;;5.40;100.00;100576.84;6009808;28;20045;-73
2023/12/20 01:41:21;;;;;;;8.20;2.80;;;;;;;5.33;100.00;100567.72;6024213;28;20022;-73
2023/12/20 01:44:16;;;;;;;16.00;3.20;;;;;;;5.34;100.00;100574.66;6019631;28;20038;-72
2023/12/20 01:47:12;;;;;;;10.60;3.53;;;;;;;5.35;100.00;100582.41;6019280;28;20042;-72
2023/12/20 01:50:08;;;;;;;13.23;3.35;;;;;;;5.32;100.00;100584.47;6024690;28;20023;-72
2023/12/20 01:53:04;;;;;;;9.60;2.67;;;;;;;5.28;100.00;100580.38;6017479;28;20031;-73
2023/12/20 01:55:59;;;;;;;16.08;3.40;;;;;;;5.27;100.00;100586.59;6001797;28;20102;-72
2023/12/20 01:58:56;;;;;;;9.32;3.35;;;;;;;5.30;100.00;100581.09;6007936;28;20044;-72
2023/12/20 02:01:51;;;;;;;16.95;3.25;;;;;;;5.33;100.00;100583.50;6010072;28;20070;-72
2023/12/20 02:04:47;;;;;;;18.57;4.13;;;;;;;5.39;100.00;100594.41;6015200;28;20035;-71
2023/12/20 02:07:42;;;;;;;18.55;2.95;;;;;;;5.38;100.00;100586.63;6011973;28;20082;-71
2023/12/20 02:10:38;;;;;;;8.97;1.93;;;;;;;5.40;100.00;100595.25;6011128;28;20026;-72
2023/12/20 02:13:33;;;;;;;10.25;2.30;;;;;;;5.34;100.00;100593.91;6012866;28;20274;-72
2023/12/20 02:16:28;;;;;;;7.83;2.37;;;;;;;5.26;100.00;100588.41;6002036;28;20045;-72
2023/12/20 02:19:24;;;;;;;10.30;2.63;;;;;;;5.23;100.00;100587.78;6018743;28;20035;-73
2023/12/20 02:22:19;;;;;;;10.63;2.10;;;;;;;5.18;100.00;100592.53;6011931;28;20374;-72
2023/12/20 02:25:14;;;;;;;13.67;2.10;;;;;;;5.12;100.00;100585.97;6021030;28;20027;-72
2023/12/20 02:28:10;;;;;;;11.27;2.77;;;;;;;5.05;100.00;100589.16;6012258;28;20033;-72
2023/12/20 02:31:05;;;;;;;8.52;2.05;;;;;;;4.97;100.00;100581.84;6022200;28;20026;-72
2023/12/20 02:34:00;;;;;;;9.13;2.37;;;;;;;4.88;100.00;100576.44;6008134;28;20513;-73
2023/12/20 02:36:56;;;;;;;7.47;2.67;;;;;;;4.85;100.00;100574.03;6005649;28;20038;-73
2023/12/20 02:39:51;;;;;;;8.63;2.43;;;;;;;4.85;100.00;100576.66;6019045;28;20034;-73
2023/12/20 02:42:46;;;;;;;10.33;1.60;;;;;;;4.81;100.00;100566.38;6008782;28;20038;-72
2023/12/20 02:45:41;;;;;;;12.57;2.17;;;;;;;4.79;100.00;100568.28;6013550;28;20035;-72
2023/12/20 02:48:37;;;;;;;7.87;2.07;;;;;;;4.66;100.00;100566.66;6002872;28;20026;-72
2023/12/20 02:51:32;;;;;;;6.30;1.77;;;;;;;4.58;100.00;100569.84;6019321;28;20045;-72
2023/12/20 02:54:27;;;;;;;6.77;1.77;;;;;;;4.51;100.00;100562.53;6020490;28;20054;-72
2023/12/20 02:57:23;;;;;;;5.83;1.70;;;;;;;4.62;100.00;100565.22;6006401;28;20285;-71
2023/12/20 03:00:19;;;;;;;7.10;1.70;;;;;;;4.62;100.00;100568.66;6013782;28;20055;-72
2023/12/20 03:03:14;;;;;;;10.77;2.05;;;;;;;4.56;100.00;100556.00;6008695;28;20494;-72
2023/12/20 03:06:09;;;;;;;6.60;1.10;;;;;;;4.60;100.00;100557.44;6018915;28;20031;-73
2023/12/20 03:09:05;;;;;;;8.27;1.27;;;;;;;4.67;100.00;100553.41;6006083;28;20027;-71
2023/12/20 03:12:00;;;;;;;20.67;2.13;;;;;;;4.70;100.00;100557.63;6013571;28;20266;-72
2023/12/20 03:14:55;;;;;;;8.40;1.30;;;;;;;4.59;100.00;100561.00;6012896;28;20034;-72
2023/12/20 03:17:51;;;;;;;8.80;1.57;;;;;;;4.59;100.00;100554.94;6009653;28;20062;-72
2023/12/20 03:20:48;;;;;;;4.40;1.13;;;;;;;4.57;100.00;100544.53;6010462;28;20062;-72
2023/12/20 03:23:44;;;;;;;4.47;1.58;;;;;;;4.57;100.00;100541.91;6013736;28;20769;-71
2023/12/20 03:26:39;;;;;;;9.07;1.40;;;;;;;4.57;100.00;100547.16;6020609;28;20037;-72
2023/12/20 03:29:34;;;;;;;9.90;1.97;;;;;;;4.42;100.00;100531.69;6005381;28;20033;-73
2023/12/20 03:32:29;;;;;;;5.20;1.17;;;;;;;4.41;100.00;100533.47;6015611;28;20046;-73
2023/12/20 03:35:25;;;;;;;6.27;1.50;;;;;;;4.29;100.00;100531.75;6015841;28;20042;-72
2023/12/20 03:38:21;;;;;;;6.13;1.10;;;;;;;4.24;100.00;100523.34;6012395;28;21474;-73
2023/12/20 03:41:16;;;;;;;8.60;1.42;;;;;;;4.13;100.00;100504.94;5999940;28;20042;-73
2023/12/20 03:44:11;;;;;;;8.10;1.60;;;;;;;4.13;100.00;100504.94;6007104;28;20026;-73
2023/12/20 03:47:07;;;;;;;8.63;1.40;;;;;;;4.04;100.00;100495.09;6004397;28;20039;-72
2023/12/20 03:50:03;;;;;;;10.10;1.60;;;;;;;4.06;100.00;100503.69;6016781;28;20038;-73
2023/12/20 03:52:58;;;;;;;6.60;1.08;;;;;;;3.98;100.00;100500.78;6009614;28;20092;-73
2023/12/20 03:55:53;;;;;;;10.40;1.50;;;;;;;3.99;100.00;100503.31;6019157;28;20038;-73
2023/12/20 03:58:49;;;;;;;5.10;1.47;;;;;;;3.92;100.00;100504.66;6013122;28;20034;-73
2023/12/20 04:01:44;;;;;;;10.63;1.37;;;;;;;3.90;100.00;100493.47;5998357;28;20445;-73
2023/12/20 04:04:40;;;;;;;2.88;1.10;;;;;;;3.88;100.00;100499.75;6012433;28;20080;-73
2023/12/20 04:07:35;;;;;;;5.60;1.20;;;;;;;3.89;100.00;100483.91;6012108;28;20042;-73
2023/12/20 04:10:31;;;;;;;5.93;1.52;;;;;;;3.85;100.00;100494.72;6012752;28;20030;-73
2023/12/20 04:13:26;;;;;;;5.97;1.00;;;;;;;3.85;100.00;100495.56;5996739;28;20538;-72
2023/12/20 04:16:21;;;;;;;6.83;1.23;;;;;;;3.86;100.00;100483.31;6011932;28;20041;-73
2023/12/20 04:19:17;;;;;;;4.77;0.87;;;;;;;3.83;100.00;100486.16;6014986;28;20466;-73
2023/12/20 04:22:12;;;;;;;9.13;1.53;;;;;;;3.88;100.00;100484.88;6008187;28;20151;-72
2023/12/20 04:25:08;;;;;;;1.98;0.90;;;;;;;3.94;100.00;100484.41;6019662;28;20029;-73
2023/12/20 04:28:03;;;;;;;7.65;1.95;;;;;;;4.02;100.00;100494.38;6019085;28;20030;-72
2023/12/20 04:30:58;;;;;;;6.00;1.13;;;;;;;3.99;100.00;100486.72;6012288;28;20088;-73
2023/12/20 04:33:54;;;;;;;4.23;0.80;;;;;;;4.04;100.00;100492.47;6008266;28;20065;-73
2023/12/20 04:36:49;;;;;;;5.33;0.90;;;;;;;4.01;100.00;100487.44;6016294;28;20062;-73
2023/12/20 04:39:44;;;;;;;5.43;0.90;;;;;;;4.14;100.00;100490.84;6006837;28;20030;-73
2023/12/20 04:42:40;;;;;;;9.60;1.20;;;;;;;4.31;100.00;100493.09;6012394;28;20067;-72
2023/12/20 04:45:35;;;;;;;4.43;1.17;;;;;;;4.21;100.00;100482.41;6010703;28;20034;-72
2023/12/20 04:48:30;;;;;;;3.70;1.50;;;;;;;4.38;100.00;100475.09;5997784;28;20027;-72
2023/12/20 04:51:26;;;;;;;8.23;1.37;;;;;;;4.37;100.00;100469.03;6011896;28;20278;-72
2023/12/20 04:54:21;;;;;;;3.13;1.20;;;;;;;4.46;100.00;100472.75;6003787;28;20047;-74
2023/12/20 04:57:16;;;;;;;2.80;1.17;;;;;;;4.62;100.00;100479.38;6021628;28;20023;-72
2023/12/20 05:00:12;;;;;;;9.10;2.67;;;;;;;4.64;100.00;100466.16;6010604;28;20052;-72
2023/12/20 05:03:07;;;;;;;7.82;1.17;;;;;;;4.80;100.00;100472.78;5997847;28;20118;-73
2023/12/20 05:06:03;;;;;;;2.80;1.00;;;;;;;4.79;100.00;100468.47;5997874;28;20494;-72
2023/12/20 05:08:58;;;;;;;6.25;1.70;;;;;;;4.82;100.00;100460.34;6018459;28;20031;-73
2023/12/20 05:11:54;;;;;;;6.13;1.30;;;;;;;4.86;100.00;100468.00;6002036;28;20023;-73
2023/12/20 05:14:49;;;;;;;9.80;1.50;;;;;;;4.89;100.00;100462.53;5995389;28;20037;-73
2023/12/20 05:17:44;;;;;;;8.33;1.37;;;;;;;4.87;100.00;100480.16;6006886;28;20038;-73
2023/12/20 05:20:40;;;;;;;5.30;1.38;;;;;;;4.96;100.00;100474.22;6018180;28;20470;-73
2023/12/20 05:23:35;;;;;;;6.88;1.50;;;;;;;5.02;100.00;100476.41;6014020;28;20516;-72
2023/12/20 05:26:31;;;;;;;7.00;1.20;;;;;;;5.02;100.00;100473.78;6006883;28;20026;-71
2023/12/20 05:29:26;;;;;;;7.67;1.30;;;;;;;4.98;100.00;100460.03;6011016;28;20258;-72
2023/12/20 05:32:21;;;;;;;8.10;1.17;;;;;;;5.01;100.00;100451.91;6007382;28;20375;-73
2023/12/20 05:35:17;;;;;;;6.23;1.60;;;;;;;4.97;100.00;100449.66;6001417;28;20027;-73
2023/12/20 05:38:12;;;;;;;7.75;1.77;;;;;;;5.00;100.00;100446.78;5997484;28;20035;-73
2023/12/20 05:41:07;;;;;;;6.70;1.83;;;;;;;5.05;100.00;100440.22;6015774;28;20042;-73
2023/12/20 05:44:03;;;;;;;10.63;1.57;;;;;;;5.09;100.00;100446.06;6011578;28;20096;-73
2023/12/20 05:46:58;;;;;;;9.25;1.38;;;;;;;5.11;100.00;100446.81;6009776;28;20294;-73
2023/12/20 05:49:54;;;;;;;3.63;1.40;;;;;;;5.17;100.00;100451.56;6012607;28;20038;-73
2023/12/20 05:52:50;;;;;;;10.63;1.47;;;;;;;5.13;100.00;100442.25;6006178;28;20038;-73
2023/12/20 05:55:45;;;;;;;9.50;1.85;;;;;;;5.18;100.00;100450.63;6017653;28;20364;-72
2023/12/20 05:58:40;;;;;;;12.23;2.00;;;;;;;5.09;100.00;100449.53;6009346;28;20412;-71
2023/12/20 06:01:36;;;;;;;5.40;1.57;;;;;;;5.07;100.00;100450.59;6013202;28;20034;-72
2023/12/20 06:04:31;;;;;;;8.33;1.57;;;;;;;5.05;100.00;100442.00;6008078;28;20039;-71
2023/12/20 06:07:27;;;;;;;9.05;1.98;;;;;;;5.14;100.00;100455.25;6013922;28;20286;-72
2023/12/20 06:10:22;;;;;;;11.05;2.10;;;;;;;5.09;100.00;100436.41;6016045;28;20088;-72
2023/12/20 06:13:18;;;;;;;11.18;1.90;;;;;;;5.16;100.00;100447.28;5998859;28;20376;-72
2023/12/20 06:16:13;;;;;;;5.70;1.53;;;;;;;5.15;100.00;100451.69;5998714;28;20031;-73
2023/12/20 06:19:08;;;;;;;4.27;1.40;;;;;;;5.14;100.00;100438.66;6009600;28;20033;-71
2023/12/20 06:22:04;;;;;;;7.00;1.80;;;;;;;5.20;100.00;100440.81;6006584;28;20278;-72
2023/12/20 06:24:59;;;;;;;6.00;1.60;;;;;;;5.24;100.00;100444.91;6012224;28;20294;-73
2023/12/20 06:27:54;;;;;;;7.07;1.53;;;;;;;5.21;100.00;100463.53;6010001;28;20030;-71
2023/12/20 06:30:52;;;;;;;8.57;2.67;;;;;;;5.14;100.00;100454.41;6012563;28;20675;-71
2023/12/20 06:33:49;;;;;;;5.97;1.38;;;;;;;5.16;100.00;100449.91;6014417;28;20041;-72
2023/12/20 06:36:44;;;;;;;10.85;2.08;;;;;;;5.22;100.00;100454.66;6009371;28;20687;-72
2023/12/20 06:39:40;;;;;;;7.90;1.90;;;;;;;5.28;100.00;100454.19;6005610;28;20037;-72
2023/12/20 06:42:35;;;;;;;9.27;1.80;;;;;;;5.23;100.00;100449.31;6010163;28;20038;-71
2023/12/20 06:45:30;;;;;;;5.43;1.93;;;;;;;5.27;100.00;100437.59;6010309;28;20074;-72
2023/12/20 06:48:26;;;;;;;4.97;1.70;;;;;;;5.28;100.00;100452.41;6006679;28;20034;-72
2023/12/20 06:51:25;;;;;;;12.70;1.87;;;;;;;5.31;100.00;100448.72;6010539;28;20501;-72
2023/12/20 06:54:20;;;;;;;8.23;1.85;;;;;;;5.32;100.00;100439.88;6015798;28;20476;-72
2023/12/20 06:57:15;;;;;;;10.32;3.13;;;;;;;5.34;100.00;100435.34;6004701;28;20039;-72
2023/12/20 07:00:11;;;;;;;7.27;1.83;;;;;;;5.35;100.00;100424.69;6001694;28;20086;-72
2023/12/20 07:03:07;;;;;;;5.68;1.30;;;;;;;5.40;100.00;100430.44;6012444;28;20046;-72
2023/12/20 07:06:02;;;;;;;8.10;2.43;;;;;;;5.31;100.00;100414.53;6011362;28;20046;-72
2023/12/20 07:08:57;;;;;;;6.72;2.17;;;;;;;5.31;100.00;100425.06;6010758;28;20497;-72
2023/12/20 07:11:53;;;;;;;6.47;1.80;;;;;;;5.31;100.00;100433.78;6001936;28;20434;-72
2023/12/20 07:14:48;;;;;;;10.07;2.23;;;;;;;5.26;100.00;100435.09;6005337;28;20039;-73
2023/12/20 07:17:43;;;;;;;7.00;1.87;;;;;;;5.26;100.00;100432.47;6008389;28;20035;-72
2023/12/20 07:20:39;;;;;;;9.57;2.53;;;;;;;5.31;100.00;100441.66;6009916;28;20062;-72
2023/12/20 07:23:34;;;;;;;5.40;2.03;;;;;;;5.30;100.00;100431.25;6005034;28;20159;-72
2023/12/20 07:26:29;;;;;;;11.47;2.97;;;;;;;5.25;100.00;100420.25;6002523;28;20058;-72
2023/12/20 07:29:25;;;;;;;9.30;2.00;;;;;;;5.28;100.00;100433.16;6008461;28;20029;-72
2023/12/20 07:32:20;;;;;;;12.80;1.83;;;;;;;5.28;100.00;100438.44;6008085;28;20035;-71
2023/12/20 07:35:16;;;;;;;6.30;1.60;;;;;;;5.17;100.00;100443.69;6003633;28;20391;-72
2023/12/20 07:38:12;;;;;;;10.50;2.25;;;;;;;5.03;100.00;100434.22;6012022;28;20277;-72
2023/12/20 07:41:10;;;;;;;8.98;1.63;;;;;;;4.86;100.00;100415.47;6001618;28;20043;-71
2023/12/20 07:44:06;;;;;;;13.70;2.15;;;;;;;4.98;100.00;100425.03;6004031;28;20037;-73
2023/12/20 07:47:02;;;;;;;5.63;1.60;;;;;;;5.00;100.00;100434.47;6002879;28;20477;-73
2023/12/20 07:49:57;;;;;;;14.93;2.60;;;;;;;4.92;100.00;100425.53;6006859;28;20033;-72
2023/12/20 07:52:53;;;;;;;19.20;2.90;;;;;;;4.92;100.00;100442.09;6012370;28;20058;-72
2023/12/20 07:55:48;;;;;;;8.00;1.93;;;;;;;4.96;100.00;100443.53;6008206;28;20034;-72
2023/12/20 07:58:44;;;;;;;7.90;1.70;;;;;;;5.00;100.00;100438.91;5997206;28;20660;-71
2023/12/20 08:01:39;;;;;;;10.30;1.88;;;;;;;5.12;100.00;100435.31;6006146;28;20046;-72
2023/12/20 08:04:35;;;;;;;9.20;2.37;;;;;;;5.15;100.00;100433.28;6003514;28;20523;-71
2023/12/20 08:07:30;;;;;;;15.53;2.53;;;;;;;5.20;100.00;100444.28;6004623;28;20027;-70
2023/12/20 08:10:25;;;;;;;8.93;3.67;;;;;;;5.24;100.00;100427.34;6002887;28;20282;-71
2023/12/20 08:13:25;;;;;;;11.77;2.30;;;;;;;5.26;100.00;100442.97;5990242;28;20463;-72
2023/12/20 08:16:21;;;;;;;12.63;2.83;;;;;;;5.25;100.00;100443.91;6000249;28;20026;-72
2023/12/20 08:19:16;;;;;;;10.43;2.20;;;;;;;5.24;100.00;100442.28;6009262;28;20022;-72
2023/12/20 08:22:12;;;;;;;7.82;2.05;;;;;;;5.16;100.00;100442.03;6003740;28;20517;-71
2023/12/20 08:25:08;;;;;;;7.80;2.57;;;;;;;5.09;100.00;100440.81;6002004;28;20040;-71
2023/12/20 08:28:04;;;;;;;13.98;2.45;;;;;;;5.07;100.00;100445.34;6011174;28;20023;-71
2023/12/20 08:31:00;;;;;;;12.57;1.60;;;;;;;4.98;100.00;100439.00;6006893;28;20059;-71
2023/12/20 08:33:55;;;;;;;7.70;1.75;;;;;;;4.99;100.00;100451.19;5999704;28;20061;-71
2023/12/20 08:36:51;;;;;;;5.90;1.80;;;;;;;4.91;100.00;100426.47;6015894;28;20058;-72
2023/12/20 08:39:46;;;;;;;11.85;3.47;;;;;;;4.90;100.00;100422.16;5998568;28;20096;-72
2023/12/20 08:42:41;;;;;;;8.83;2.27;;;;;;;4.94;100.00;100415.72;6003417;28;20129;-72
2023/12/20 08:45:38;;;;;;;11.80;2.77;;;;;;;4.92;100.00;100400.06;6011376;28;20072;-72
2023/12/20 08:48:34;;;;;;;11.95;2.20;;;;;;;5.03;100.00;100409.78;6008174;28;20110;-72
2023/12/20 08:51:29;;;;;;;9.93;2.93;;;;;;;5.12;100.00;100415.13;6005947;28;20035;-71
2023/12/20 08:54:24;;;;;;;10.67;2.03;;;;;;;5.14;100.00;100391.34;6004851;28;20034;-72
2023/12/20 08:57:26;;;;;;;11.47;2.70;;;;;;;5.20;100.00;100383.84;6008219;28;20205;-71
2023/12/20 09:00:24;;;;;;;8.18;2.20;;;;;;;5.33;100.00;100387.16;6003522;28;20103;-71
2023/12/20 09:03:19;;;;;;;10.35;2.40;;;;;;;5.45;100.00;100381.91;6009873;28;20069;-72
2023/12/20 09:06:15;;;;;;;7.73;2.23;;;;;;;5.57;100.00;100380.94;6007260;28;20030;-71
2023/12/20 09:09:13;;;;;;;14.07;2.65;;;;;;;5.68;100.00;100394.06;6010210;28;20037;-72
2023/12/20 09:12:08;;;;;;;5.78;1.73;;;;;;;5.71;100.00;100380.66;6007555;28;20031;-72
2023/12/20 09:15:04;;;;;;;11.77;2.13;;;;;;;5.75;100.00;100372.41;6015715;28;20026;-72
2023/12/20 09:17:59;;;;;;;6.28;2.30;;;;;;;5.80;100.00;100386.03;6012403;28;20367;-72
2023/12/20 09:20:55;;;;;;;8.27;1.98;;;;;;;5.77;100.00;100365.22;6016541;28;20069;-73
2023/12/20 09:23:50;;;;;;;7.93;2.30;;;;;;;5.66;100.00;100364.41;6014273;28;20358;-73
2023/12/20 09:26:45;;;;;;;7.53;2.13;;;;;;;5.66;100.00;100365.25;6011476;28;20285;-73
2023/12/20 09:29:41;;;;;;;7.63;2.20;;;;;;;5.71;100.00;100357.81;6016636;28;20030;-71
2023/12/20 09:32:36;;;;;;;7.83;1.80;;;;;;;5.75;100.00;100359.25;6013361;28;20026;-72
2023/12/20 09:35:31;;;;;;;9.80;2.20;;;;;;;5.81;100.00;100358.75;6014756;28;20357;-73
2023/12/20 09:38:27;;;;;;;10.45;2.40;;;;;;;5.86;100.00;100366.31;6003801;28;20023;-72
2023/12/20 09:41:23;;;;;;;11.53;2.13;;;;;;;5.87;100.00;100353.00;6005020;28;20038;-72
2023/12/20 09:44:19;;;;;;;4.88;1.60;;;;;;;5.91;100.00;100341.28;6013781;28;20030;-72
2023/12/20 09:47:15;;;;;;;8.93;2.20;;;;;;;5.88;100.00;100338.91;6004035;28;20386;-71
2023/12/20 09:50:12;;;;;;;5.45;1.60;;;;;;;5.85;100.00;100340.94;6013959;28;20117;-73
2023/12/20 09:53:14;;;;;;;12.82;3.15;;;;;;;5.83;100.00;100346.31;6013601;28;20034;-73
2023/12/20 09:56:10;;;;;;;12.13;2.33;;;;;;;5.75;100.00;100332.94;6014542;28;20042;-73
2023/12/20 09:59:05;;;;;;;11.40;2.17;;;;;;;5.89;100.00;100319.53;6007892;28;20037;-72
2023/12/20 10:02:03;;;;;;;13.00;2.70;;;;;;;5.86;100.00;100325.06;6007281;28;20035;-73
2023/12/20 10:04:59;;;;;;;12.13;2.72;;;;;;;5.96;100.00;100335.63;6006809;28;20023;-71
2023/12/20 10:07:54;;;;;;;12.35;2.25;;;;;;;5.98;100.00;100324.03;6022938;28;20089;-72
2023/12/20 10:10:50;;;;;;;8.07;1.95;;;;;;;6.01;100.00;100327.38;6016496;28;20038;-73
2023/12/20 10:13:47;;;;;;;9.85;1.88;;;;;;;6.12;100.00;100336.03;6001729;28;20035;-72
2023/12/20 10:16:43;;;;;;;10.30;1.85;;;;;;;6.13;100.00;100313.19;6003627;28;20043;-72
2023/12/20 10:19:38;;;;;;;9.70;2.00;;;;;;;6.20;100.00;100311.72;6008139;28;20085;-73
2023/12/20 10:22:33;;;;;;;19.20;1.97;;;;;;;6.26;100.00;100306.78;6008925;28;20493;-72
2023/12/20 10:25:29;;;;;;;10.70;2.17;;;;;;;6.21;100.00;100293.16;6014233;28;20298;-71
2023/12/20 10:28:27;;;;;;;12.40;1.93;;;;;;;6.21;100.00;100298.44;6011815;28;20543;-72
2023/12/20 10:31:30;;;;;;;9.07;1.80;;;;;;;6.19;100.00;100278.47;5999219;28;20086;-72
2023/12/20 10:34:25;;;;;;;12.43;2.30;;;;;;;6.16;100.00;100278.72;6016834;28;20030;-72
2023/12/20 10:37:21;;;;;;;10.70;2.73;;;;;;;6.13;100.00;100292.13;6005989;28;20026;-72
2023/12/20 10:40:16;;;;;;;8.35;2.20;;;;;;;6.19;100.00;100276.69;6009009;28;20046;-71
2023/12/20 10:43:13;;;;;;;15.60;4.20;;;;;;;6.22;100.00;100268.53;6017448;28;20110;-72
2023/12/20 10:46:08;;;;;;;9.98;2.00;;;;;;;6.22;100.00;100263.25;6015245;28;20062;-73
2023/12/20 10:49:05;;;;;;;6.53;1.77;;;;;;;6.25;100.00;100268.25;6033583;28;20371;-72
2023/12/20 10:52:02;;;;;;;6.28;1.80;;;;;;;6.36;100.00;100270.00;6008046;28;20454;-72
2023/12/20 10:54:58;;;;;;;7.88;1.67;;;;;;;6.30;100.00;100259.97;6009885;28;20144;-72
2023/12/20 10:58:08;;;;;;;9.50;2.20;;;;;;;6.27;100.00;100255.81;6003803;28;20088;-72
2023/12/20 11:01:04;;;;;;;11.57;2.17;;;;;;;6.27;100.00;100255.81;5994294;28;20290;-72
2023/12/20 11:03:59;;;;;;;8.77;2.10;;;;;;;6.21;100.00;100252.84;6001435;28;20033;-71
2023/12/20 11:06:59;;;;;;;8.30;2.30;;;;;;;6.09;100.00;100259.16;6018336;28;20058;-72
2023/12/20 11:10:02;;;;;;;7.45;2.25;;;;;;;5.96;100.00;100244.38;6006734;28;20038;-71
2023/12/20 11:13:09;;;;;;;6.95;2.10;;;;;;;6.01;100.00;100248.44;6007237;28;20087;-71
2023/12/20 11:16:04;;;;;;;9.38;2.33;;;;;;;6.04;100.00;100248.16;6024012;28;20038;-72
2023/12/20 11:19:05;;;;;;;9.80;2.92;;;;;;;6.06;100.00;100215.47;6003390;28;20035;-71
2023/12/20 11:22:00;;;;;;;10.45;2.28;;;;;;;6.09;100.00;100232.84;6005414;28;20547;-71
2023/12/20 11:25:04;;;;;;;12.60;2.70;;;;;;;6.12;100.00;100214.13;6005128;28;20027;-71
2023/12/20 11:28:10;;;;;;;11.35;2.63;;;;;;;6.18;100.00;100217.09;6009680;28;20041;-71
2023/12/20 11:31:06;;;;;;;5.72;1.83;;;;;;;6.17;100.00;100222.50;6006332;28;20037;-71
2023/12/20 11:34:14;;;;;;;9.90;2.10;;;;;;;6.19;100.00;100233.72;6009230;28;20042;-72
2023/12/20 11:37:09;;;;;;;9.85;1.98;;;;;;;6.15;100.00;100240.19;6013277;28;20232;-71
2023/12/20 11:40:07;;;;;;;8.97;2.10;;;;;;;6.06;100.00;100230.47;6003364;28;20545;-71
2023/12/20 11:43:04;;;;;;;10.00;2.28;;;;;;;5.98;100.00;100233.72;6001759;28;20030;-71
2023/12/20 11:46:04;;;;;;;6.82;1.63;;;;;;;5.95;100.00;100252.41;6007273;28;20022;-71
2023/12/20 11:49:00;;;;;;;8.50;2.55;;;;;;;5.88;100.00;100252.09;6001915;28;20125;-72
2023/12/20 11:51:56;;;;;;;3.92;2.45;;;;;;;5.76;100.00;100234.63;6011936;28;20038;-72
2023/12/20 11:54:51;;;;;;;4.95;1.80;;;;;;;5.74;100.00;100226.03;6011052;28;20067;-72
2023/12/20 11:57:47;;;;;;;8.83;2.07;;;;;;;5.72;100.00;100237.66;6006671;28;20051;-73
2023/12/20 12:00:43;;;;;;;7.20;1.77;;;;;;;5.59;100.00;100227.31;6013217;28;20108;-73
2023/12/20 12:03:38;;;;;;;8.00;2.45;;;;;;;5.65;100.00;100268.06;6002646;28;20038;-71
2023/12/20 12:06:35;;;;;;;9.95;2.88;;;;;;;5.59;100.00;100258.03;6006981;28;20070;-73
2023/12/20 12:09:30;;;;;;;4.68;1.92;;;;;;;5.48;100.00;100245.78;6008299;28;20031;-70
2023/12/20 12:12:27;;;;;;;10.27;2.87;;;;;;;5.46;100.00;100254.75;6002305;28;20117;-71
2023/12/20 12:15:22;;;;;;;5.97;2.42;;;;;;;5.52;100.00;100249.81;5997321;28;20353;-70
2023/12/20 12:18:18;;;;;;;9.33;1.90;;;;;;;5.28;100.00;100233.41;6005466;28;20031;-72
2023/12/20 12:21:20;;;;;;;5.30;1.23;;;;;;;5.17;100.00;100239.53;6008798;28;20278;-71
2023/12/20 12:24:21;;;;;;;4.72;1.10;;;;;;;5.12;100.00;100230.34;6005052;28;20034;-71
2023/12/20 12:27:16;;;;;;;2.83;0.77;;;;;;;5.05;100.00;100208.16;6003947;28;20035;-72
2023/12/20 12:30:13;;;;;;;2.87;0.80;;;;;;;4.97;100.00;100229.78;6005307;28;20382;-72
2023/12/20 12:33:09;;;;;;;5.03;0.90;;;;;;;5.02;100.00;100234.69;6012682;28;20022;-72
2023/12/20 12:36:07;;;;;;;2.88;0.60;;;;;;;4.98;100.00;100236.69;6008839;28;20035;-72
2023/12/20 12:39:04;;;;;;;0.77;0.30;;;;;;;4.97;100.00;100235.06;6006156;28;20042;-72
2023/12/20 12:41:59;;;;;;;3.75;0.77;;;;;;;5.02;100.00;100243.41;6010299;28;20037;-72
2023/12/20 12:44:56;;;;;;;1.77;0.50;;;;;;;5.00;100.00;100244.47;6004121;28;20390;-72
2023/12/20 12:47:52;;;;;;;4.70;0.55;;;;;;;4.96;100.00;100211.50;6013119;28;20042;-72
2023/12/20 12:50:47;;;;;;;2.78;0.47;;;;;;;5.07;100.00;100225.47;6003313;28;20046;-72
2023/12/20 12:53:42;;;;;;;2.20;0.40;;;;;;;5.04;100.00;100219.63;6006301;28;20073;-72
2023/12/20 12:56:38;;;;;;;2.30;0.50;;;;;;;4.93;100.00;100217.00;6005100;28;20278;-71
2023/12/20 12:59:33;;;;;;;3.53;0.50;;;;;;;4.86;100.00;100218.47;6001428;28;20039;-72
2023/12/20 13:02:29;;;;;;;1.93;0.40;;;;;;;4.84;100.00;100238.78;6006044;28;20082;-71
2023/12/20 13:05:24;;;;;;;1.30;0.40;;;;;;;4.72;100.00;100228.28;6006237;28;20085;-71
2023/12/20 13:08:19;;;;;;;1.60;0.67;;;;;;;4.71;100.00;100237.09;6007482;28;20061;-71
2023/12/20 13:11:15;;;;;;;1.53;0.40;;;;;;;4.76;100.00;100242.81;6008841;28;20282;-71
2023/12/20 13:14:15;;;;;;;1.50;0.30;;;;;;;4.85;100.00;100245.69;6007734;28;20108;-71
2023/12/20 13:17:10;;;;;;;3.58;0.70;;;;;;;4.86;100.00;100240.31;6011927;28;20509;-73
2023/12/20 13:20:06;;;;;;;4.30;1.13;;;;;;;4.98;100.00;100251.63;6010646;28;20041;-71
2023/12/20 13:23:01;;;;;;;4.40;0.95;;;;;;;4.84;100.00;100236.16;6017457;28;20034;-72
2023/12/20 13:25:57;;;;;;;5.53;1.70;;;;;;;4.77;100.00;100244.50;6003021;28;20475;-72
2023/12/20 13:28:53;;;;;;;5.57;1.10;;;;;;;4.67;100.00;100254.03;6008028;28;20030;-72
2023/12/20 13:31:49;;;;;;;3.83;0.60;;;;;;;4.70;100.00;100259.06;6012767;28;20308;-72
2023/12/20 13:34:44;;;;;;;3.45;0.77;;;;;;;4.71;100.00;100265.16;6012989;28;20034;-72